sensor_id;sensor_type;location;lat;lon;timestamp;pressure;altitude;pressure_sealevel;temperature;humidity
43312;BME280;30041;48.300;16.352;2023-03-01T00:00:08;100846.16;;;22.65;39.51
43312;BME280;30041;48.300;16.352;2023-03-01T00:02:34;100846.97;;;22.65;39.64
43312;BME280;30041;48.300;16.352;2023-03-01T00:04:59;100844.72;;;22.62;39.64
43312;BME280;30041;48.300;16.352;2023-03-01T00:07:25;100848.44;;;22.61;39.53
43312;BME280;30041;48.300;16.352;2023-03-01T00:09:50;100842.22;;;22.61;39.76
43312;BME280;30041;48.300;16.352;2023-03-01T00:12:16;100840.13;;;22.63;39.30
43312;BME280;30041;48.300;16.352;2023-03-01T00:14:42;100847.63;;;22.61;39.41
43312;BME280;30041;48.300;16.352;2023-03-01T00:17:07;100855.72;;;22.61;39.53
43312;BME280;30041;48.300;16.352;2023-03-01T00:19:33;100850.78;;;22.57;39.56
43312;BME280;30041;48.300;16.352;2023-03-01T00:21:58;100851.81;;;22.56;39.55
43312;BME280;30041;48.300;16.352;2023-03-01T00:24:24;100848.47;;;22.54;39.59
43312;BME280;30041;48.300;16.352;2023-03-01T00:26:53;100850.38;;;22.54;39.79
43312;BME280;30041;48.300;16.352;2023-03-01T00:29:18;100844.97;;;22.54;39.82
43312;BME280;30041;48.300;16.352;2023-03-01T00:31:44;100848.72;;;22.53;39.85
43312;BME280;30041;48.300;16.352;2023-03-01T00:34:10;100846.84;;;22.53;39.64
43312;BME280;30041;48.300;16.352;2023-03-01T00:36:36;100845.16;;;22.52;39.56
43312;BME280;30041;48.300;16.352;2023-03-01T00:39:03;100837.91;;;22.53;39.62
43312;BME280;30041;48.300;16.352;2023-03-01T00:41:29;100842.47;;;22.52;39.56
43312;BME280;30041;48.300;16.352;2023-03-01T00:43:55;100837.91;;;22.53;39.64
43312;BME280;30041;48.300;16.352;2023-03-01T00:46:22;100837.28;;;22.51;39.77
43312;BME280;30041;48.300;16.352;2023-03-01T00:48:48;100834.59;;;22.51;39.53
43312;BME280;30041;48.300;16.352;2023-03-01T00:51:19;100823.78;;;22.51;39.57
43312;BME280;30041;48.300;16.352;2023-03-01T00:53:46;100829.81;;;22.53;39.66
43312;BME280;30041;48.300;16.352;2023-03-01T00:56:13;100822.13;;;22.50;39.80
43312;BME280;30041;48.300;16.352;2023-03-01T00:58:39;100824.59;;;22.51;39.87
43312;BME280;30041;48.300;16.352;2023-03-01T01:01:15;100826.28;;;22.46;39.88
43312;BME280;30041;48.300;16.352;2023-03-01T01:03:41;100821.09;;;22.51;39.84
43312;BME280;30041;48.300;16.352;2023-03-01T01:06:22;100812.56;;;22.47;39.80
43312;BME280;30041;48.300;16.352;2023-03-01T01:08:50;100820.03;;;22.52;39.65
43312;BME280;30041;48.300;16.352;2023-03-01T01:11:16;100818.16;;;22.52;39.73
43312;BME280;30041;48.300;16.352;2023-03-01T01:13:43;100816.50;;;22.51;39.74
43312;BME280;30041;48.300;16.352;2023-03-01T01:16:09;100822.94;;;22.50;39.68
43312;BME280;30041;48.300;16.352;2023-03-01T01:21:10;100816.75;;;22.43;39.74
43312;BME280;30041;48.300;16.352;2023-03-01T01:23:38;100813.41;;;22.48;39.82
43312;BME280;30041;48.300;16.352;2023-03-01T01:26:15;100808.84;;;22.48;39.67
43312;BME280;30041;48.300;16.352;2023-03-01T01:28:40;100812.56;;;22.47;39.76
43312;BME280;30041;48.300;16.352;2023-03-01T01:31:06;100810.69;;;22.48;39.78
43312;BME280;30041;48.300;16.352;2023-03-01T01:33:33;100803.00;;;22.51;39.67
43312;BME280;30041;48.300;16.352;2023-03-01T01:35:59;100809.44;;;22.50;39.49
43312;BME280;30041;48.300;16.352;2023-03-01T01:38:25;100795.91;;;22.50;39.56
43312;BME280;30041;48.300;16.352;2023-03-01T01:40:51;100797.59;;;22.51;39.52
43312;BME280;30041;48.300;16.352;2023-03-01T01:43:23;100806.16;;;22.48;39.63
43312;BME280;30041;48.300;16.352;2023-03-01T01:45:50;100800.75;;;22.48;39.84
43312;BME280;30041;48.300;16.352;2023-03-01T01:48:20;100793.66;;;22.47;39.83
43312;BME280;30041;48.300;16.352;2023-03-01T01:50:54;100790.13;;;22.47;39.62
43312;BME280;30041;48.300;16.352;2023-03-01T01:53:21;100787.44;;;22.47;39.81
43312;BME280;30041;48.300;16.352;2023-03-01T01:55:50;100784.34;;;22.43;40.00
43312;BME280;30041;48.300;16.352;2023-03-01T01:58:19;100786.00;;;22.44;39.73
43312;BME280;30041;48.300;16.352;2023-03-01T02:00:45;100782.25;;;22.45;39.76
43312;BME280;30041;48.300;16.352;2023-03-01T02:03:17;100784.94;;;22.45;39.75
43312;BME280;30041;48.300;16.352;2023-03-01T02:08:13;100775.41;;;22.43;39.81
43312;BME280;30041;48.300;16.352;2023-03-01T02:10:40;100776.63;;;22.47;39.78
43312;BME280;30041;48.300;16.352;2023-03-01T02:13:06;100781.44;;;22.45;39.70
43312;BME280;30041;48.300;16.352;2023-03-01T02:15:38;100780.00;;;22.42;39.76
43312;BME280;30041;48.300;16.352;2023-03-01T02:18:05;100778.09;;;22.43;39.63
43312;BME280;30041;48.300;16.352;2023-03-01T02:21:02;100775.41;;;22.43;39.67
43312;BME280;30041;48.300;16.352;2023-03-01T02:23:31;100774.34;;;22.44;39.75
43312;BME280;30041;48.300;16.352;2023-03-01T02:28:33;100780.00;;;22.42;39.88
43312;BME280;30041;48.300;16.352;2023-03-01T02:31:01;100778.94;;;22.43;39.88
43312;BME280;30041;48.300;16.352;2023-03-01T02:33:27;100782.69;;;22.42;39.77
43312;BME280;30041;48.300;16.352;2023-03-01T02:35:54;100788.91;;;22.43;39.78
43312;BME280;30041;48.300;16.352;2023-03-01T02:38:21;100781.63;;;22.43;39.56
43312;BME280;30041;48.300;16.352;2023-03-01T02:40:49;100775.00;;;22.39;39.83
43312;BME280;30041;48.300;16.352;2023-03-01T02:43:16;100777.28;;;22.42;39.62
43312;BME280;30041;48.300;16.352;2023-03-01T02:45:48;100773.97;;;22.40;39.77
43312;BME280;30041;48.300;16.352;2023-03-01T02:48:14;100777.69;;;22.39;39.71
43312;BME280;30041;48.300;16.352;2023-03-01T02:51:04;100772.75;;;22.36;39.85
43312;BME280;30041;48.300;16.352;2023-03-01T02:56:10;100775.25;;;22.37;39.67
43312;BME280;30041;48.300;16.352;2023-03-01T02:58:35;100773.16;;;22.40;39.90
43312;BME280;30041;48.300;16.352;2023-03-01T03:01:01;100773.34;;;22.38;39.84
43312;BME280;30041;48.300;16.352;2023-03-01T03:03:26;100771.47;;;22.38;39.77
43312;BME280;30041;48.300;16.352;2023-03-01T03:05:52;100775.25;;;22.37;39.67
43312;BME280;30041;48.300;16.352;2023-03-01T03:08:17;100774.63;;;22.35;39.82
43312;BME280;30041;48.300;16.352;2023-03-01T03:10:43;100770.66;;;22.38;39.52
43312;BME280;30041;48.300;16.352;2023-03-01T03:13:13;100769.22;;;22.35;39.74
43312;BME280;30041;48.300;16.352;2023-03-01T03:15:41;100765.25;;;22.38;39.73
43312;BME280;30041;48.300;16.352;2023-03-01T03:18:12;100765.47;;;22.36;39.94
43312;BME280;30041;48.300;16.352;2023-03-01T03:20:39;100763.16;;;22.40;39.75
43312;BME280;30041;48.300;16.352;2023-03-01T03:23:05;100764.19;;;22.39;39.78
43312;BME280;30041;48.300;16.352;2023-03-01T03:25:31;100759.84;;;22.38;39.54
43312;BME280;30041;48.300;16.352;2023-03-01T03:27:57;100765.25;;;22.38;39.66
43312;BME280;30041;48.300;16.352;2023-03-01T03:30:29;100751.13;;;22.36;39.78
43312;BME280;30041;48.300;16.352;2023-03-01T03:32:55;100744.91;;;22.35;39.71
43312;BME280;30041;48.300;16.352;2023-03-01T03:35:27;100751.56;;;22.33;39.72
43312;BME280;30041;48.300;16.352;2023-03-01T03:37:53;100742.41;;;22.34;39.83
43312;BME280;30041;48.300;16.352;2023-03-01T03:40:18;100748.44;;;22.36;39.71
43312;BME280;30041;48.300;16.352;2023-03-01T03:42:44;100745.28;;;22.39;39.90
43312;BME280;30041;48.300;16.352;2023-03-01T03:45:09;100747.63;;;22.35;39.84
43312;BME280;30041;48.300;16.352;2023-03-01T03:47:35;100749.50;;;22.35;39.62
43312;BME280;30041;48.300;16.352;2023-03-01T03:50:00;100751.56;;;22.33;39.59
43312;BME280;30041;48.300;16.352;2023-03-01T03:52:26;100748.63;;;22.34;39.72
43312;BME280;30041;48.300;16.352;2023-03-01T03:54:51;100749.50;;;22.35;39.62
43312;BME280;30041;48.300;16.352;2023-03-01T03:57:17;100751.56;;;22.33;39.66
43312;BME280;30041;48.300;16.352;2023-03-01T03:59:42;100749.09;;;22.31;39.94
43312;BME280;30041;48.300;16.352;2023-03-01T04:02:08;100752.59;;;22.32;39.67
43312;BME280;30041;48.300;16.352;2023-03-01T04:04:34;100743.69;;;22.31;39.61
43312;BME280;30041;48.300;16.352;2023-03-01T04:06:59;100744.09;;;22.35;39.65
43312;BME280;30041;48.300;16.352;2023-03-01T04:09:25;100735.13;;;22.34;39.65
43312;BME280;30041;48.300;16.352;2023-03-01T04:11:50;100744.28;;;22.33;39.92
43312;BME280;30041;48.300;16.352;2023-03-01T04:14:16;100742.22;;;22.35;39.72
43312;BME280;30041;48.300;16.352;2023-03-01T04:16:41;100737.00;;;22.34;39.68
43312;BME280;30041;48.300;16.352;2023-03-01T04:19:07;100740.78;;;22.33;39.79
43312;BME280;30041;48.300;16.352;2023-03-01T04:21:33;100739.09;;;22.32;39.70
43312;BME280;30041;48.300;16.352;2023-03-01T04:23:58;100747.81;;;22.34;39.76
43312;BME280;30041;48.300;16.352;2023-03-01T04:26:24;100741.59;;;22.33;39.79
43312;BME280;30041;48.300;16.352;2023-03-01T04:28:49;100740.53;;;22.34;39.64
43312;BME280;30041;48.300;16.352;2023-03-01T04:31:18;100742.00;;;22.30;39.67
43312;BME280;30041;48.300;16.352;2023-03-01T04:36:11;100754.28;;;22.33;39.81
43312;BME280;30041;48.300;16.352;2023-03-01T04:38:38;100747.81;;;22.34;39.58
43312;BME280;30041;48.300;16.352;2023-03-01T04:41:09;100747.22;;;22.32;39.88
43312;BME280;30041;48.300;16.352;2023-03-01T04:43:36;100743.47;;;22.33;39.69
43312;BME280;30041;48.300;16.352;2023-03-01T04:46:03;100738.06;;;22.33;39.73
43312;BME280;30041;48.300;16.352;2023-03-01T04:48:30;100733.28;;;22.35;39.79
43312;BME280;30041;48.300;16.352;2023-03-01T04:50:56;100748.44;;;22.36;39.58
43312;BME280;30041;48.300;16.352;2023-03-01T04:53:21;100742.22;;;22.35;39.63
43312;BME280;30041;48.300;16.352;2023-03-01T04:55:47;100738.69;;;22.35;39.68
43312;BME280;30041;48.300;16.352;2023-03-01T04:58:12;100747.81;;;22.34;39.53
43312;BME280;30041;48.300;16.352;2023-03-01T05:00:38;100750.94;;;22.37;39.44
43312;BME280;30041;48.300;16.352;2023-03-01T05:03:03;100743.81;;;22.43;39.41
43312;BME280;30041;48.300;16.352;2023-03-01T05:05:36;100740.91;;;22.45;39.59
43312;BME280;30041;48.300;16.352;2023-03-01T05:08:05;100743.81;;;22.43;39.33
43312;BME280;30041;48.300;16.352;2023-03-01T05:10:32;100748.41;;;22.43;39.47
43312;BME280;30041;48.300;16.352;2023-03-01T05:12:58;100748.81;;;22.46;39.40
43312;BME280;30041;48.300;16.352;2023-03-01T05:15:26;100744.88;;;22.42;39.64
43312;BME280;30041;48.300;16.352;2023-03-01T05:17:56;100750.66;;;22.46;39.62
43312;BME280;30041;48.300;16.352;2023-03-01T05:20:22;100743.81;;;22.43;39.62
43312;BME280;30041;48.300;16.352;2023-03-01T05:22:47;100745.69;;;22.43;39.38
43312;BME280;30041;48.300;16.352;2023-03-01T05:25:13;100754.63;;;22.43;39.42
43312;BME280;30041;48.300;16.352;2023-03-01T05:27:38;100753.59;;;22.44;39.52
43312;BME280;30041;48.300;16.352;2023-03-01T05:30:04;100750.03;;;22.44;39.36
43312;BME280;30041;48.300;16.352;2023-03-01T05:32:30;100752.31;;;22.47;39.54
43312;BME280;30041;48.300;16.352;2023-03-01T05:34:56;100742.34;;;22.47;39.28
43312;BME280;30041;48.300;16.352;2023-03-01T05:37:21;100745.88;;;22.48;39.47
43312;BME280;30041;48.300;16.352;2023-03-01T05:39:47;100746.47;;;22.50;39.58
43312;BME280;30041;48.300;16.352;2023-03-01T05:42:12;100764.34;;;22.51;39.43
43312;BME280;30041;48.300;16.352;2023-03-01T05:44:38;100757.91;;;22.52;39.21
43312;BME280;30041;48.300;16.352;2023-03-01T05:47:03;100767.88;;;22.51;39.23
43312;BME280;30041;48.300;16.352;2023-03-01T05:49:29;100764.97;;;22.53;39.32
43312;BME280;30041;48.300;16.352;2023-03-01T05:51:54;100767.22;;;22.11;39.73
43312;BME280;30041;48.300;16.352;2023-03-01T05:54:21;100767.94;;;21.86;40.01
43312;BME280;30041;48.300;16.352;2023-03-01T05:56:47;100775.84;;;21.74;39.71
43312;BME280;30041;48.300;16.352;2023-03-01T05:59:13;100773.78;;;21.70;38.53
43312;BME280;30041;48.300;16.352;2023-03-01T06:01:38;100773.38;;;21.73;37.66
43312;BME280;30041;48.300;16.352;2023-03-01T06:04:04;100774.63;;;21.70;38.27
43312;BME280;30041;48.300;16.352;2023-03-01T06:06:33;100775.47;;;21.64;39.06
43312;BME280;30041;48.300;16.352;2023-03-01T06:08:59;100779.19;;;21.63;39.17
43312;BME280;30041;48.300;16.352;2023-03-01T06:11:25;100776.28;;;21.71;39.26
43312;BME280;30041;48.300;16.352;2023-03-01T06:13:50;100772.13;;;21.75;39.23
43312;BME280;30041;48.300;16.352;2023-03-01T06:16:16;100779.16;;;21.76;39.67
43312;BME280;30041;48.300;16.352;2023-03-01T06:18:42;100781.47;;;21.80;39.12
43312;BME280;30041;48.300;16.352;2023-03-01T06:21:08;100778.34;;;21.69;38.88
43312;BME280;30041;48.300;16.352;2023-03-01T06:23:34;100775.47;;;21.64;39.25
43312;BME280;30041;48.300;16.352;2023-03-01T06:26:04;100781.50;;;21.66;39.33
43312;BME280;30041;48.300;16.352;2023-03-01T06:28:32;100776.72;;;21.62;39.34
43312;BME280;30041;48.300;16.352;2023-03-01T06:30:58;100781.91;;;21.63;39.44
43312;BME280;30041;48.300;16.352;2023-03-01T06:33:23;100786.66;;;21.61;39.77
43312;BME280;30041;48.300;16.352;2023-03-01T06:35:54;100782.31;;;21.60;39.57
43312;BME280;30041;48.300;16.352;2023-03-01T06:38:20;100780.88;;;21.58;39.71
43312;BME280;30041;48.300;16.352;2023-03-01T06:40:51;100778.81;;;21.53;39.68
43312;BME280;30041;48.300;16.352;2023-03-01T06:43:17;100792.50;;;21.58;39.60
43312;BME280;30041;48.300;16.352;2023-03-01T06:45:42;100793.75;;;21.62;39.29
43312;BME280;30041;48.300;16.352;2023-03-01T06:48:08;100802.44;;;21.64;38.88
43312;BME280;30041;48.300;16.352;2023-03-01T06:50:34;100799.16;;;21.49;38.46
43312;BME280;30041;48.300;16.352;2023-03-01T06:53:00;100795.81;;;21.53;38.27
43312;BME280;30041;48.300;16.352;2023-03-01T06:55:26;100792.09;;;21.54;38.62
43312;BME280;30041;48.300;16.352;2023-03-01T06:57:56;100788.38;;;21.49;38.74
43312;BME280;30041;48.300;16.352;2023-03-01T07:00:22;100794.56;;;21.49;38.74
43312;BME280;30041;48.300;16.352;2023-03-01T07:02:48;100790.00;;;21.50;38.71
43312;BME280;30041;48.300;16.352;2023-03-01T07:05:14;100789.81;;;21.51;38.81
43312;BME280;30041;48.300;16.352;2023-03-01T07:07:39;100783.97;;;21.61;38.58
43312;BME280;30041;48.300;16.352;2023-03-01T07:10:05;100785.66;;;21.49;38.81
43312;BME280;30041;48.300;16.352;2023-03-01T07:12:31;100788.38;;;21.42;38.92
43312;BME280;30041;48.300;16.352;2023-03-01T07:14:57;100785.88;;;21.41;38.96
43312;BME280;30041;48.300;16.352;2023-03-01T07:17:22;100781.09;;;21.29;38.12
43312;BME280;30041;48.300;16.352;2023-03-01T07:19:48;100778.38;;;21.29;38.03
43312;BME280;30041;48.300;16.352;2023-03-01T07:22:14;100781.94;;;21.43;38.17
43312;BME280;30041;48.300;16.352;2023-03-01T07:24:41;100780.06;;;21.57;38.20
43312;BME280;30041;48.300;16.352;2023-03-01T07:27:06;100784.19;;;21.66;37.97
43312;BME280;30041;48.300;16.352;2023-03-01T07:29:32;100784.38;;;21.71;37.92
43312;BME280;30041;48.300;16.352;2023-03-01T07:31:59;100782.91;;;21.75;37.92
43312;BME280;30041;48.300;16.352;2023-03-01T07:34:25;100779.16;;;21.76;38.14
43312;BME280;30041;48.300;16.352;2023-03-01T07:36:50;100777.31;;;21.77;37.92
43312;BME280;30041;48.300;16.352;2023-03-01T07:39:16;100772.94;;;21.76;38.30
43312;BME280;30041;48.300;16.352;2023-03-01T07:41:41;100765.47;;;21.78;37.99
43312;BME280;30041;48.300;16.352;2023-03-01T07:44:07;100767.16;;;21.79;38.16
43312;BME280;30041;48.300;16.352;2023-03-01T07:46:36;100772.31;;;21.81;38.22
43312;BME280;30041;48.300;16.352;2023-03-01T07:49:01;100767.16;;;21.79;38.02
43312;BME280;30041;48.300;16.352;2023-03-01T07:51:27;100767.34;;;21.77;38.24
43312;BME280;30041;48.300;16.352;2023-03-01T07:53:52;100761.34;;;21.75;38.58
43312;BME280;30041;48.300;16.352;2023-03-01T07:56:18;100760.28;;;21.76;38.41
43312;BME280;30041;48.300;16.352;2023-03-01T07:58:44;100762.97;;;21.76;38.67
43312;BME280;30041;48.300;16.352;2023-03-01T08:01:15;100764.66;;;21.77;38.72
43312;BME280;30041;48.300;16.352;2023-03-01T08:03:40;100766.72;;;21.75;38.61
43312;BME280;30041;48.300;16.352;2023-03-01T08:06:09;100767.53;;;21.76;38.41
43312;BME280;30041;48.300;16.352;2023-03-01T08:08:35;100766.28;;;21.79;38.59
43312;BME280;30041;48.300;16.352;2023-03-01T08:11:03;100764.66;;;21.77;38.61
43312;BME280;30041;48.300;16.352;2023-03-01T08:13:29;100753.25;;;21.75;38.78
43312;BME280;30041;48.300;16.352;2023-03-01T08:16:04;100763.41;;;21.73;38.77
43312;BME280;30041;48.300;16.352;2023-03-01T08:18:30;100756.38;;;21.72;38.67
43312;BME280;30041;48.300;16.352;2023-03-01T08:21:01;100756.38;;;21.72;38.91
43312;BME280;30041;48.300;16.352;2023-03-01T08:23:27;100759.66;;;21.74;38.86
43312;BME280;30041;48.300;16.352;2023-03-01T08:25:53;100756.13;;;21.74;38.81
43312;BME280;30041;48.300;16.352;2023-03-01T08:28:18;100756.38;;;21.72;39.00
43312;BME280;30041;48.300;16.352;2023-03-01T08:30:44;100756.13;;;21.74;38.90
43312;BME280;30041;48.300;16.352;2023-03-01T08:33:09;100757.19;;;21.73;38.91
43312;BME280;30041;48.300;16.352;2023-03-01T08:35:35;100756.56;;;21.71;38.90
43312;BME280;30041;48.300;16.352;2023-03-01T08:38:03;100763.84;;;21.70;39.03
43312;BME280;30041;48.300;16.352;2023-03-01T08:40:28;100764.47;;;21.72;39.11
43312;BME280;30041;48.300;16.352;2023-03-01T08:42:54;100762.59;;;21.73;38.80
43312;BME280;30041;48.300;16.352;2023-03-01T08:45:19;100761.75;;;21.72;38.96
43312;BME280;30041;48.300;16.352;2023-03-01T08:47:45;100757.59;;;21.70;39.12
43312;BME280;30041;48.300;16.352;2023-03-01T08:50:10;100761.75;;;21.72;39.02
43312;BME280;30041;48.300;16.352;2023-03-01T08:52:39;100756.78;;;21.69;39.10
43312;BME280;30041;48.300;16.352;2023-03-01T08:55:05;100763.00;;;21.70;39.02
43312;BME280;30041;48.300;16.352;2023-03-01T08:57:30;100751.56;;;21.68;39.03
43312;BME280;30041;48.300;16.352;2023-03-01T08:59:56;100743.28;;;21.69;39.14
43312;BME280;30041;48.300;16.352;2023-03-01T09:02:22;100739.16;;;21.67;39.01
43312;BME280;30041;48.300;16.352;2023-03-01T09:04:48;100736.03;;;21.63;39.20
43312;BME280;30041;48.300;16.352;2023-03-01T09:07:13;100736.44;;;21.67;39.18
43312;BME280;30041;48.300;16.352;2023-03-01T09:09:39;100733.53;;;21.68;39.13
43312;BME280;30041;48.300;16.352;2023-03-01T09:12:04;100728.16;;;21.68;39.18
43312;BME280;30041;48.300;16.352;2023-03-01T09:14:30;100724.84;;;21.66;39.04
43312;BME280;30041;48.300;16.352;2023-03-01T09:16:56;100723.16;;;21.65;39.07
43312;BME280;30041;48.300;16.352;2023-03-01T09:19:22;100726.91;;;21.64;39.08
43312;BME280;30041;48.300;16.352;2023-03-01T09:21:47;100722.53;;;21.63;39.32
43312;BME280;30041;48.300;16.352;2023-03-01T09:24:14;100719.84;;;21.63;38.99
43312;BME280;30041;48.300;16.352;2023-03-01T09:26:40;100714.69;;;21.62;39.24
43312;BME280;30041;48.300;16.352;2023-03-01T09:29:06;100718.19;;;21.62;39.27
43312;BME280;30041;48.300;16.352;2023-03-01T09:31:31;100717.38;;;21.62;38.92
43312;BME280;30041;48.300;16.352;2023-03-01T09:33:57;100710.31;;;21.61;39.23
43312;BME280;30041;48.300;16.352;2023-03-01T09:36:24;100706.59;;;21.62;39.19
43312;BME280;30041;48.300;16.352;2023-03-01T09:38:50;100696.00;;;21.60;39.18
43312;BME280;30041;48.300;16.352;2023-03-01T09:44:00;100695.38;;;21.58;39.30
43312;BME280;30041;48.300;16.352;2023-03-01T09:46:27;100699.75;;;21.59;39.23
43312;BME280;30041;48.300;16.352;2023-03-01T09:48:59;100692.88;;;21.56;39.12
43312;BME280;30041;48.300;16.352;2023-03-01T09:51:33;100690.19;;;21.56;38.89
43312;BME280;30041;48.300;16.352;2023-03-01T09:54:01;100692.47;;;21.60;39.14
43312;BME280;30041;48.300;16.352;2023-03-01T09:56:36;100685.03;;;21.55;39.21
43312;BME280;30041;48.300;16.352;2023-03-01T10:04:46;100674.66;;;21.52;39.18
43312;BME280;30041;48.300;16.352;2023-03-01T10:07:29;100677.56;;;21.50;39.13
43312;BME280;30041;48.300;16.352;2023-03-01T10:09:58;100677.34;;;21.52;39.18
43312;BME280;30041;48.300;16.352;2023-03-01T10:12:27;100678.81;;;21.54;39.07
43312;BME280;30041;48.300;16.352;2023-03-01T10:15:09;100673.91;;;21.05;39.05
43312;BME280;30041;48.300;16.352;2023-03-01T10:17:53;100669.59;;;20.84;39.50
43312;BME280;30041;48.300;16.352;2023-03-01T10:20:26;100661.91;;;20.81;39.72
43312;BME280;30041;48.300;16.352;2023-03-01T10:22:52;100660.44;;;20.78;39.84
43312;BME280;30041;48.300;16.352;2023-03-01T10:26:15;100648.66;;;20.72;39.99
43312;BME280;30041;48.300;16.352;2023-03-01T10:30:50;100651.75;;;20.69;39.96
43312;BME280;30041;48.300;16.352;2023-03-01T10:33:24;100652.81;;;20.68;39.91
43312;BME280;30041;48.300;16.352;2023-03-01T10:35:51;100653.00;;;20.67;40.23
43312;BME280;30041;48.300;16.352;2023-03-01T10:38:18;100647.59;;;20.67;39.99
43312;BME280;30041;48.300;16.352;2023-03-01T10:40:58;100642.44;;;20.65;40.16
43312;BME280;30041;48.300;16.352;2023-03-01T10:43:26;100642.22;;;20.67;39.81
43312;BME280;30041;48.300;16.352;2023-03-01T10:45:52;100640.97;;;20.69;40.03
43312;BME280;30041;48.300;16.352;2023-03-01T10:48:23;100636.44;;;20.70;40.04
43312;BME280;30041;48.300;16.352;2023-03-01T10:51:04;100633.31;;;20.73;39.90
43312;BME280;30041;48.300;16.352;2023-03-01T10:53:36;100624.19;;;20.74;39.98
43312;BME280;30041;48.300;16.352;2023-03-01T10:56:08;100623.16;;;20.75;40.02
43312;BME280;30041;48.300;16.352;2023-03-01T10:58:36;100621.09;;;20.77;39.86
43312;BME280;30041;48.300;16.352;2023-03-01T11:01:06;100614.66;;;20.78;40.01
43312;BME280;30041;48.300;16.352;2023-03-01T11:03:38;100609.88;;;20.80;39.98
43312;BME280;30041;48.300;16.352;2023-03-01T11:08:44;100599.72;;;20.82;39.79
43312;BME280;30041;48.300;16.352;2023-03-01T11:16:40;100592.69;;;20.88;40.11
43312;BME280;30041;48.300;16.352;2023-03-01T11:21:38;100574.22;;;20.91;40.26
43312;BME280;30041;48.300;16.352;2023-03-01T11:24:09;100577.97;;;20.90;40.20
43312;BME280;30041;48.300;16.352;2023-03-01T11:26:38;100571.53;;;20.91;40.29
43312;BME280;30041;48.300;16.352;2023-03-01T11:29:12;100564.06;;;20.93;40.38
43312;BME280;30041;48.300;16.352;2023-03-01T11:31:39;100576.28;;;20.89;40.23
43312;BME280;30041;48.300;16.352;2023-03-01T11:34:13;100577.53;;;20.93;40.15
43312;BME280;30041;48.300;16.352;2023-03-01T11:36:51;100574.84;;;20.93;39.94
43312;BME280;30041;48.300;16.352;2023-03-01T11:42:20;100570.91;;;20.89;39.80
43312;BME280;30041;48.300;16.352;2023-03-01T11:44:52;100572.97;;;20.94;39.86
43312;BME280;30041;48.300;16.352;2023-03-01T11:48:04;100569.44;;;20.93;39.97
43312;BME280;30041;48.300;16.352;2023-03-01T11:50:40;100566.53;;;20.95;39.71
43312;BME280;30041;48.300;16.352;2023-03-01T11:56:36;100575.66;;;20.94;40.13
43312;BME280;30041;48.300;16.352;2023-03-01T11:59:16;100571.13;;;20.94;40.34
43312;BME280;30041;48.300;16.352;2023-03-01T12:10:24;100558.66;;;20.93;40.94
43312;BME280;30041;48.300;16.352;2023-03-01T12:13:17;100557.03;;;20.92;40.93
43312;BME280;30041;48.300;16.352;2023-03-01T12:16:13;100564.06;;;20.93;40.80
43312;BME280;30041;48.300;16.352;2023-03-01T12:21:42;100560.34;;;20.94;41.29
43312;BME280;30041;48.300;16.352;2023-03-01T12:24:40;100552.66;;;20.91;41.17
43312;BME280;30041;48.300;16.352;2023-03-01T12:39:18;100534.41;;;20.93;41.69
43312;BME280;30041;48.300;16.352;2023-03-01T12:44:38;100533.38;;;20.94;41.57
43312;BME280;30041;48.300;16.352;2023-03-01T12:47:23;100540.41;;;20.96;41.75
43312;BME280;30041;48.300;16.352;2023-03-01T12:49:58;100529.81;;;21.01;41.54
43312;BME280;30041;48.300;16.352;2023-03-01T12:52:40;100522.38;;;20.96;41.76
43312;BME280;30041;48.300;16.352;2023-03-01T12:55:24;100530.47;;;20.96;41.95
43312;BME280;30041;48.300;16.352;2023-03-01T13:06:29;100524.22;;;21.02;41.34
43312;BME280;30041;48.300;16.352;2023-03-01T13:11:42;100519.47;;;21.04;41.41
43312;BME280;30041;48.300;16.352;2023-03-01T13:16:48;100514.88;;;21.05;41.17
43312;BME280;30041;48.300;16.352;2023-03-01T13:19:25;100509.50;;;21.05;41.04
43312;BME280;30041;48.300;16.352;2023-03-01T13:21:53;100507.41;;;21.07;40.94
43312;BME280;30041;48.300;16.352;2023-03-01T13:24:38;100513.44;;;21.02;41.31
43312;BME280;30041;48.300;16.352;2023-03-01T13:29:49;100508.06;;;21.02;40.98
43312;BME280;30041;48.300;16.352;2023-03-01T13:32:29;100509.13;;;21.01;40.90
43312;BME280;30041;48.300;16.352;2023-03-01T13:34:58;100503.09;;;20.99;41.03
43312;BME280;30041;48.300;16.352;2023-03-01T13:37:27;100509.53;;;20.98;41.00
43312;BME280;30041;48.300;16.352;2023-03-01T13:39:53;100507.25;;;21.02;40.83
43312;BME280;30041;48.300;16.352;2023-03-01T13:42:37;100506.81;;;20.98;40.92
43312;BME280;30041;48.300;16.352;2023-03-01T13:47:41;100483.81;;;20.96;41.24
43312;BME280;30041;48.300;16.352;2023-03-01T13:50:27;100476.38;;;20.98;40.91
43312;BME280;30041;48.300;16.352;2023-03-01T13:52:56;100482.16;;;21.01;40.98
43312;BME280;30041;48.300;16.352;2023-03-01T13:55:36;100475.91;;;21.01;40.75
43312;BME280;30041;48.300;16.352;2023-03-01T13:58:15;100464.13;;;21.02;40.85
43312;BME280;30041;48.300;16.352;2023-03-01T14:00:41;100468.69;;;21.01;40.99
43312;BME280;30041;48.300;16.352;2023-03-01T14:05:39;100454.16;;;21.02;41.15
43312;BME280;30041;48.300;16.352;2023-03-01T14:08:17;100457.47;;;21.04;40.76
43312;BME280;30041;48.300;16.352;2023-03-01T14:19:17;100450.81;;;21.07;41.26
43312;BME280;30041;48.300;16.352;2023-03-01T14:21:43;100448.56;;;21.04;41.13
43312;BME280;30041;48.300;16.352;2023-03-01T14:24:23;100449.38;;;21.04;41.32